Time;durP1;ratioP1;P1;durP2;ratioP2;P2;SDS_P1;SDS_P2;PMS_P1;PMS_P2;Temp;Humidity;BMP_temperature;BMP_pressure;BME280_temperature;BME280_humidity;BME280_pressure;Samples;Min_cycle;Max_cycle;Signal;HPM_P1;HPM_P2
2021/08/02 00:02:23;;;;;;;4.22;3.30;;;;;;;;;;5080152;28;19995;-50
2021/08/02 00:04:51;;;;;;;3.20;2.70;;;;;;;;;;5084013;28;20059;-50
2021/08/02 00:07:18;;;;;;;3.92;3.35;;;;;;;;;;5094263;28;20107;-50
2021/08/02 00:09:45;;;;;;;4.32;3.20;;;;;;;;;;5069800;28;20083;-53
2021/08/02 00:12:16;;;;;;;3.22;2.92;;;;;;;;;;5081435;28;20028;-50
2021/08/02 00:14:42;;;;;;;6.88;4.13;;;;;;;;;;5084975;28;20116;-51
2021/08/02 00:17:08;;;;;;;5.53;3.25;;;;;;;;;;5093896;28;20024;-51
2021/08/02 00:19:35;;;;;;;4.38;3.42;;;;;;;;;;5078029;28;20024;-51
2021/08/02 00:22:04;;;;;;;4.85;3.55;;;;;;;;;;5075783;28;20035;-51
2021/08/02 00:24:31;;;;;;;7.65;3.75;;;;;;;;;;5074445;28;20041;-51
2021/08/02 00:26:57;;;;;;;4.00;3.35;;;;;;;;;;5090452;28;20028;-50
2021/08/02 00:29:24;;;;;;;8.73;3.40;;;;;;;;;;5060542;28;20029;-51
2021/08/02 00:31:51;;;;;;;9.00;3.22;;;;;;;;;;5072586;28;20032;-51
2021/08/02 00:34:17;;;;;;;6.68;3.75;;;;;;;;;;5093382;28;20031;-51
2021/08/02 00:36:48;;;;;;;5.90;3.60;;;;;;;;;;5093414;28;20020;-51
2021/08/02 00:39:25;;;;;;;5.57;3.65;;;;;;;;;;5085680;28;20040;-51
2021/08/02 00:42:10;;;;;;;4.47;3.20;;;;;;;;;;5071300;28;20092;-54
2021/08/02 00:44:54;;;;;;;6.18;4.07;;;;;;;;;;5068011;28;20113;-51
2021/08/02 00:47:23;;;;;;;6.00;3.47;;;;;;;;;;5065515;28;20036;-50
2021/08/02 00:49:54;;;;;;;7.53;3.90;;;;;;;;;;5055813;28;20029;-51
2021/08/02 00:52:21;;;;;;;4.95;3.65;;;;;;;;;;5058716;28;20540;-51
2021/08/02 00:54:48;;;;;;;4.82;3.90;;;;;;;;;;5081015;28;20020;-51
2021/08/02 00:57:17;;;;;;;4.65;3.60;;;;;;;;;;5078225;28;20895;-51
2021/08/02 00:59:44;;;;;;;4.82;3.15;;;;;;;;;;5054506;28;20040;-51
2021/08/02 01:02:10;;;;;;;6.60;3.75;;;;;;;;;;5066447;28;20155;-50
2021/08/02 01:04:37;;;;;;;6.90;3.72;;;;;;;;;;5079931;28;20032;-54
2021/08/02 01:07:08;;;;;;;4.90;3.67;;;;;;;;;;5093093;28;20024;-51
2021/08/02 01:09:35;;;;;;;10.10;3.78;;;;;;;;;;5063421;28;20037;-52
2021/08/02 01:12:02;;;;;;;5.38;3.30;;;;;;;;;;5073631;28;20030;-50
2021/08/02 01:14:29;;;;;;;4.55;3.95;;;;;;;;;;5085311;28;20032;-50
2021/08/02 01:16:55;;;;;;;6.32;3.75;;;;;;;;;;5079454;28;20021;-51
2021/08/02 01:19:22;;;;;;;4.25;3.60;;;;;;;;;;5079226;28;20111;-50
2021/08/02 01:21:49;;;;;;;4.88;3.55;;;;;;;;;;5083190;28;20028;-53
2021/08/02 01:24:16;;;;;;;4.18;3.67;;;;;;;;;;5083217;28;20028;-52
2021/08/02 01:26:45;;;;;;;9.32;4.20;;;;;;;;;;5092640;28;20166;-52
2021/08/02 01:29:30;;;;;;;4.47;3.53;;;;;;;;;;5075830;28;20148;-53
2021/08/02 01:31:56;;;;;;;6.55;4.85;;;;;;;;;;5090535;28;20472;-53
2021/08/02 01:34:22;;;;;;;7.60;4.05;;;;;;;;;;5086127;28;20028;-52
2021/08/02 01:36:47;;;;;;;5.30;4.03;;;;;;;;;;5076720;28;20513;-52
2021/08/02 01:39:13;;;;;;;4.88;3.92;;;;;;;;;;5091353;28;20028;-51
2021/08/02 01:41:39;;;;;;;4.35;3.58;;;;;;;;;;5092246;28;20043;-52
2021/08/02 01:44:05;;;;;;;5.30;3.47;;;;;;;;;;5057842;28;20029;-53
2021/08/02 01:46:42;;;;;;;7.75;4.00;;;;;;;;;;5074089;28;20553;-51
2021/08/02 01:49:20;;;;;;;7.20;3.63;;;;;;;;;;5089551;28;20375;-50
2021/08/02 01:51:51;;;;;;;5.68;4.43;;;;;;;;;;5092153;28;20081;-51
2021/08/02 01:54:35;;;;;;;6.30;3.90;;;;;;;;;;5068028;28;20031;-51
2021/08/02 01:57:13;;;;;;;8.73;4.28;;;;;;;;;;5092288;28;20024;-51
2021/08/02 01:59:41;;;;;;;5.25;3.80;;;;;;;;;;5075871;28;20086;-52
2021/08/02 02:02:11;;;;;;;10.73;4.30;;;;;;;;;;5081748;28;20028;-51
2021/08/02 02:05:12;;;;;;;5.68;4.50;;;;;;;;;;5055850;28;20049;-52
2021/08/02 02:07:47;;;;;;;5.25;4.45;;;;;;;;;;5014317;28;20076;-51
2021/08/02 02:10:14;;;;;;;5.93;4.47;;;;;;;;;;5053589;28;20050;-50
2021/08/02 02:12:42;;;;;;;6.75;4.70;;;;;;;;;;5073654;28;20540;-51
2021/08/02 02:15:08;;;;;;;8.05;4.85;;;;;;;;;;5063806;28;20105;-51
2021/08/02 02:17:35;;;;;;;6.03;3.95;;;;;;;;;;5071746;28;20102;-51
2021/08/02 02:20:02;;;;;;;5.35;4.28;;;;;;;;;;5069967;28;20427;-52
2021/08/02 02:22:28;;;;;;;5.20;4.35;;;;;;;;;;5078434;28;20056;-51
2021/08/02 02:24:54;;;;;;;5.57;4.63;;;;;;;;;;5056436;28;20033;-50
2021/08/02 02:27:20;;;;;;;6.53;4.40;;;;;;;;;;5064711;28;20416;-51
2021/08/02 02:29:47;;;;;;;6.72;4.68;;;;;;;;;;5057885;28;20063;-51
2021/08/02 02:32:13;;;;;;;7.45;4.20;;;;;;;;;;5074873;28;20020;-50
2021/08/02 02:34:39;;;;;;;7.72;4.55;;;;;;;;;;5072115;28;20141;-50
2021/08/02 02:37:06;;;;;;;8.68;4.18;;;;;;;;;;5071385;28;20046;-52
2021/08/02 02:39:33;;;;;;;5.78;3.58;;;;;;;;;;5091111;28;20035;-51
2021/08/02 02:42:00;;;;;;;6.25;4.80;;;;;;;;;;5067710;28;20024;-50
2021/08/02 02:44:27;;;;;;;8.10;4.63;;;;;;;;;;5062955;28;20544;-50
2021/08/02 02:46:54;;;;;;;8.88;4.65;;;;;;;;;;5076833;28;20033;-50
2021/08/02 02:49:21;;;;;;;7.30;4.50;;;;;;;;;;5080844;28;20036;-53
2021/08/02 02:51:49;;;;;;;4.97;4.10;;;;;;;;;;5095449;28;20020;-50
2021/08/02 02:54:16;;;;;;;5.03;4.00;;;;;;;;;;5075661;28;20025;-51
2021/08/02 02:56:42;;;;;;;6.18;4.03;;;;;;;;;;5095493;28;20085;-51
2021/08/02 02:59:08;;;;;;;5.72;4.63;;;;;;;;;;5086328;28;20134;-51
2021/08/02 03:01:41;;;;;;;4.88;3.75;;;;;;;;;;5084852;28;20461;-52
2021/08/02 03:04:07;;;;;;;6.68;4.00;;;;;;;;;;5081197;28;20093;-50
2021/08/02 03:06:33;;;;;;;5.90;4.22;;;;;;;;;;5095172;28;20103;-50
2021/08/02 03:09:01;;;;;;;4.10;3.35;;;;;;;;;;5094471;28;20021;-51
2021/08/02 03:11:28;;;;;;;5.85;4.03;;;;;;;;;;5075264;28;20127;-50
2021/08/02 03:13:54;;;;;;;6.57;4.55;;;;;;;;;;5062068;28;20028;-51
2021/08/02 03:16:21;;;;;;;4.88;3.88;;;;;;;;;;5063318;28;20524;-52
2021/08/02 03:18:47;;;;;;;4.97;4.00;;;;;;;;;;5094777;28;20031;-51
2021/08/02 03:21:15;;;;;;;3.95;3.47;;;;;;;;;;5068452;28;20021;-51
2021/08/02 03:23:47;;;;;;;5.50;3.97;;;;;;;;;;5074830;28;20040;-51
2021/08/02 03:26:17;;;;;;;4.13;3.33;;;;;;;;;;5081881;28;20030;-51
2021/08/02 03:28:54;;;;;;;9.40;4.70;;;;;;;;;;5084998;28;20123;-50
2021/08/02 03:31:22;;;;;;;3.88;3.50;;;;;;;;;;5089668;28;20073;-50
2021/08/02 03:33:49;;;;;;;5.85;3.90;;;;;;;;;;5067296;28;20039;-52
2021/08/02 03:36:15;;;;;;;5.47;3.63;;;;;;;;;;5086734;28;20393;-51
2021/08/02 03:38:43;;;;;;;5.43;3.42;;;;;;;;;;5055617;28;20457;-52
2021/08/02 03:41:11;;;;;;;5.15;3.72;;;;;;;;;;5068168;28;20029;-51
2021/08/02 03:43:39;;;;;;;5.22;3.13;;;;;;;;;;5060555;28;20032;-52
2021/08/02 03:46:06;;;;;;;7.07;3.55;;;;;;;;;;5075947;28;20404;-50
2021/08/02 03:48:33;;;;;;;5.35;3.85;;;;;;;;;;5081839;28;20107;-50
2021/08/02 03:50:59;;;;;;;5.50;3.78;;;;;;;;;;5084525;28;20093;-50
2021/08/02 03:53:25;;;;;;;6.57;3.45;;;;;;;;;;5064207;28;20033;-50
2021/08/02 03:55:52;;;;;;;6.18;3.30;;;;;;;;;;5086874;28;20032;-53
2021/08/02 03:58:18;;;;;;;6.10;3.53;;;;;;;;;;5081447;28;20051;-52
2021/08/02 04:00:45;;;;;;;6.72;3.55;;;;;;;;;;5087778;28;20029;-51
2021/08/02 04:03:11;;;;;;;6.50;3.60;;;;;;;;;;5067111;28;20032;-51
2021/08/02 04:05:37;;;;;;;4.22;2.70;;;;;;;;;;5054020;28;20037;-51
2021/08/02 04:08:03;;;;;;;3.40;2.83;;;;;;;;;;5083683;28;20032;-51
2021/08/02 04:10:30;;;;;;;5.20;3.10;;;;;;;;;;5079800;28;20049;-50
2021/08/02 04:12:56;;;;;;;6.40;3.30;;;;;;;;;;5065480;28;20468;-52
2021/08/02 04:15:22;;;;;;;5.15;3.17;;;;;;;;;;5064764;28;20021;-50
2021/08/02 04:17:48;;;;;;;5.57;2.95;;;;;;;;;;5076597;28;20035;-50
2021/08/02 04:20:14;;;;;;;4.80;3.35;;;;;;;;;;5093892;28;20441;-52
2021/08/02 04:22:41;;;;;;;7.15;3.53;;;;;;;;;;5081362;28;20444;-51
2021/08/02 04:25:07;;;;;;;4.18;3.05;;;;;;;;;;5091178;28;20048;-52
2021/08/02 04:27:33;;;;;;;5.03;3.00;;;;;;;;;;5089260;28;20110;-50
2021/08/02 04:29:59;;;;;;;6.35;3.40;;;;;;;;;;5083596;28;20111;-52
2021/08/02 04:32:25;;;;;;;4.55;3.20;;;;;;;;;;5074377;28;20555;-51
2021/08/02 04:34:51;;;;;;;4.90;2.88;;;;;;;;;;5079993;28;20059;-50
2021/08/02 04:37:17;;;;;;;6.95;3.70;;;;;;;;;;5093482;28;20456;-51
2021/08/02 04:39:43;;;;;;;4.18;3.28;;;;;;;;;;5081609;28;20052;-51
2021/08/02 04:42:10;;;;;;;3.80;2.92;;;;;;;;;;5093035;28;20024;-51
2021/08/02 04:44:36;;;;;;;6.20;3.00;;;;;;;;;;5065796;28;20508;-51
2021/08/02 04:47:02;;;;;;;6.30;2.83;;;;;;;;;;5086231;28;20077;-50
2021/08/02 04:49:28;;;;;;;4.88;2.85;;;;;;;;;;5060576;28;20082;-51
2021/08/02 04:51:54;;;;;;;4.43;3.20;;;;;;;;;;5082118;28;20500;-51
2021/08/02 04:54:20;;;;;;;4.82;2.90;;;;;;;;;;5071134;28;20055;-52
2021/08/02 04:56:46;;;;;;;6.65;3.22;;;;;;;;;;5086992;28;20894;-51
2021/08/02 04:59:12;;;;;;;8.23;2.88;;;;;;;;;;5092939;28;20368;-51
2021/08/02 05:01:38;;;;;;;4.93;2.47;;;;;;;;;;5075565;28;20128;-53
2021/08/02 05:04:04;;;;;;;3.53;2.47;;;;;;;;;;5066130;28;20345;-51
2021/08/02 05:06:30;;;;;;;5.22;2.70;;;;;;;;;;5061465;28;20117;-51
2021/08/02 05:08:55;;;;;;;2.63;2.20;;;;;;;;;;5060390;28;20078;-50
2021/08/02 05:11:21;;;;;;;4.00;2.70;;;;;;;;;;5060470;28;20033;-50
2021/08/02 05:13:47;;;;;;;4.00;2.90;;;;;;;;;;5067806;28;20037;-52
2021/08/02 05:16:13;;;;;;;4.40;2.65;;;;;;;;;;5071953;28;20432;-51
2021/08/02 05:18:39;;;;;;;3.90;3.03;;;;;;;;;;5057143;28;20048;-51
2021/08/02 05:21:05;;;;;;;5.78;3.65;;;;;;;;;;5058962;28;20021;-51
2021/08/02 05:23:32;;;;;;;5.13;3.03;;;;;;;;;;5054076;28;20032;-50
2021/08/02 05:25:58;;;;;;;5.63;2.97;;;;;;;;;;5076790;28;20056;-50
2021/08/02 05:28:24;;;;;;;7.93;2.90;;;;;;;;;;5062891;28;20514;-51
2021/08/02 05:30:50;;;;;;;4.03;2.70;;;;;;;;;;5053608;28;20048;-51
2021/08/02 05:33:16;;;;;;;6.50;2.95;;;;;;;;;;5056269;28;20029;-51
2021/08/02 05:35:42;;;;;;;7.43;3.33;;;;;;;;;;5084279;28;20027;-52
2021/08/02 05:38:08;;;;;;;4.55;2.90;;;;;;;;;;5068425;28;20055;-50
2021/08/02 05:40:34;;;;;;;4.32;3.20;;;;;;;;;;5078789;28;20027;-51
2021/08/02 05:43:00;;;;;;;8.00;3.00;;;;;;;;;;5085055;28;20063;-52
2021/08/02 05:45:26;;;;;;;5.55;2.80;;;;;;;;;;5066136;28;20021;-50
2021/08/02 05:47:52;;;;;;;4.90;2.53;;;;;;;;;;5071937;28;20116;-51
2021/08/02 05:50:19;;;;;;;5.05;3.10;;;;;;;;;;5066875;28;20028;-52
2021/08/02 05:52:45;;;;;;;6.28;3.13;;;;;;;;;;5066125;28;20484;-52
2021/08/02 05:55:13;;;;;;;3.80;2.78;;;;;;;;;;5060421;28;20455;-51
2021/08/02 05:57:39;;;;;;;6.55;3.38;;;;;;;;;;5065072;28;20031;-50
2021/08/02 06:00:06;;;;;;;6.45;2.78;;;;;;;;;;5066559;28;20109;-51
2021/08/02 06:02:32;;;;;;;3.38;2.20;;;;;;;;;;5072777;28;20076;-51
2021/08/02 06:04:58;;;;;;;4.68;2.88;;;;;;;;;;5069368;28;20495;-52
2021/08/02 06:07:24;;;;;;;5.78;2.63;;;;;;;;;;5073240;28;20070;-51
2021/08/02 06:09:51;;;;;;;6.88;2.85;;;;;;;;;;5066799;28;20475;-51
2021/08/02 06:12:18;;;;;;;5.13;2.67;;;;;;;;;;5073615;28;20461;-50
2021/08/02 06:14:44;;;;;;;3.47;2.15;;;;;;;;;;5075267;28;20534;-51
2021/08/02 06:17:10;;;;;;;2.97;2.15;;;;;;;;;;5070415;28;20025;-50
2021/08/02 06:19:35;;;;;;;3.88;2.97;;;;;;;;;;5063389;28;20081;-50
2021/08/02 06:22:01;;;;;;;4.35;2.10;;;;;;;;;;5086153;28;20464;-51
2021/08/02 06:24:27;;;;;;;4.88;2.30;;;;;;;;;;5077372;28;20376;-50
2021/08/02 06:26:53;;;;;;;4.80;2.20;;;;;;;;;;5064435;28;20032;-50
2021/08/02 06:29:19;;;;;;;2.50;1.83;;;;;;;;;;5073466;28;20036;-50
2021/08/02 06:31:45;;;;;;;3.53;1.88;;;;;;;;;;5084356;28;20039;-52
2021/08/02 06:34:11;;;;;;;4.22;1.60;;;;;;;;;;5080711;28;20032;-54
2021/08/02 06:36:37;;;;;;;2.65;1.50;;;;;;;;;;5067944;28;20408;-51
2021/08/02 06:39:03;;;;;;;7.13;2.20;;;;;;;;;;5073677;28;20368;-51
2021/08/02 06:41:29;;;;;;;1.92;1.10;;;;;;;;;;5055338;28;20476;-51
2021/08/02 06:43:55;;;;;;;4.28;1.83;;;;;;;;;;5077864;28;20036;-50
2021/08/02 06:46:21;;;;;;;6.90;1.90;;;;;;;;;;5087637;28;20028;-51
2021/08/02 06:48:47;;;;;;;6.30;1.70;;;;;;;;;;5084518;28;20039;-51
2021/08/02 06:51:14;;;;;;;3.67;1.40;;;;;;;;;;5074936;28;20024;-51
2021/08/02 06:53:40;;;;;;;6.43;1.70;;;;;;;;;;5067485;28;20531;-51
2021/08/02 06:56:06;;;;;;;10.43;1.92;;;;;;;;;;5081090;28;20032;-52
2021/08/02 06:58:32;;;;;;;9.20;1.58;;;;;;;;;;5092239;28;20463;-51
2021/08/02 07:00:58;;;;;;;5.38;2.20;;;;;;;;;;5087410;28;20059;-51
2021/08/02 07:03:24;;;;;;;4.18;1.55;;;;;;;;;;5087890;28;20020;-51
2021/08/02 07:05:50;;;;;;;3.58;1.63;;;;;;;;;;5079779;28;20024;-53
2021/08/02 07:08:18;;;;;;;2.50;1.70;;;;;;;;;;5072066;28;20039;-51
2021/08/02 07:10:44;;;;;;;2.38;1.60;;;;;;;;;;5083348;28;20045;-51
2021/08/02 07:13:10;;;;;;;3.75;1.27;;;;;;;;;;5094431;28;20024;-52
2021/08/02 07:15:36;;;;;;;1.88;1.35;;;;;;;;;;5092884;28;20402;-51
2021/08/02 07:18:02;;;;;;;6.00;1.30;;;;;;;;;;5079562;28;20091;-52
2021/08/02 07:20:28;;;;;;;2.17;1.33;;;;;;;;;;5072203;28;20380;-51
2021/08/02 07:22:54;;;;;;;3.10;1.40;;;;;;;;;;5075221;28;20218;-53
2021/08/02 07:25:20;;;;;;;4.47;1.67;;;;;;;;;;5078801;28;20054;-50
2021/08/02 07:27:46;;;;;;;4.80;1.55;;;;;;;;;;5093173;28;20031;-52
2021/08/02 07:30:12;;;;;;;2.63;1.20;;;;;;;;;;5085127;28;20463;-51
2021/08/02 07:32:38;;;;;;;3.53;1.20;;;;;;;;;;5094779;28;20569;-50
2021/08/02 07:35:05;;;;;;;2.53;1.52;;;;;;;;;;5078668;28;20031;-51
2021/08/02 07:37:31;;;;;;;4.28;1.10;;;;;;;;;;5084858;28;20480;-50
2021/08/02 07:39:56;;;;;;;2.90;1.33;;;;;;;;;;5088534;28;20116;-52
2021/08/02 07:42:22;;;;;;;3.55;1.23;;;;;;;;;;5080651;28;20032;-50
2021/08/02 07:44:49;;;;;;;2.58;1.40;;;;;;;;;;5078449;28;20024;-50
2021/08/02 07:47:14;;;;;;;4.65;1.30;;;;;;;;;;5067939;28;20698;-51
2021/08/02 07:49:40;;;;;;;2.42;1.27;;;;;;;;;;5082992;28;20036;-51
2021/08/02 07:52:07;;;;;;;5.95;1.73;;;;;;;;;;5070487;28;20080;-51
2021/08/02 07:54:33;;;;;;;3.50;1.10;;;;;;;;;;5070247;28;20016;-52
2021/08/02 07:56:59;;;;;;;5.22;1.45;;;;;;;;;;5084657;28;20038;-52
2021/08/02 07:59:25;;;;;;;3.22;1.13;;;;;;;;;;5081450;28;20016;-52
2021/08/02 08:01:51;;;;;;;1.90;0.98;;;;;;;;;;5075702;28;20452;-50
2021/08/02 08:04:17;;;;;;;3.08;1.02;;;;;;;;;;5083971;28;20020;-50
2021/08/02 08:06:46;;;;;;;3.72;1.30;;;;;;;;;;5072259;28;20362;-52
2021/08/02 08:09:12;;;;;;;2.38;1.08;;;;;;;;;;5077315;28;20111;-51
2021/08/02 08:11:38;;;;;;;3.70;1.08;;;;;;;;;;5069172;28;20380;-50
2021/08/02 08:14:04;;;;;;;2.15;0.90;;;;;;;;;;5060639;28;20037;-50
2021/08/02 08:16:30;;;;;;;1.95;0.75;;;;;;;;;;5082858;28;20095;-52
2021/08/02 08:18:56;;;;;;;3.88;0.90;;;;;;;;;;5070023;28;20470;-51
2021/08/02 08:21:22;;;;;;;2.22;0.70;;;;;;;;;;5077112;28;20052;-52
2021/08/02 08:23:48;;;;;;;2.88;1.20;;;;;;;;;;5059143;28;20397;-50
2021/08/02 08:26:14;;;;;;;3.47;0.95;;;;;;;;;;5056185;28;20162;-50
2021/08/02 08:28:40;;;;;;;3.10;1.00;;;;;;;;;;5063117;28;20056;-50
2021/08/02 08:31:06;;;;;;;4.05;1.10;;;;;;;;;;5087984;28;20065;-50
2021/08/02 08:33:32;;;;;;;1.83;0.95;;;;;;;;;;5073716;28;20033;-50
2021/08/02 08:35:58;;;;;;;5.38;1.30;;;;;;;;;;5063322;28;20028;-50
2021/08/02 08:38:25;;;;;;;1.33;0.90;;;;;;;;;;5069330;28;20136;-50
2021/08/02 08:40:52;;;;;;;1.77;0.88;;;;;;;;;;5065312;28;20432;-53
2021/08/02 08:43:19;;;;;;;4.13;1.10;;;;;;;;;;5058356;28;20056;-51
2021/08/02 08:45:45;;;;;;;2.08;0.77;;;;;;;;;;5067439;28;20408;-52
2021/08/02 08:48:11;;;;;;;2.60;0.98;;;;;;;;;;5059966;28;20157;-51
2021/08/02 08:50:38;;;;;;;2.35;0.77;;;;;;;;;;5054739;28;20036;-50
2021/08/02 08:53:05;;;;;;;1.38;1.05;;;;;;;;;;5059324;28;20031;-51
2021/08/02 08:55:31;;;;;;;2.95;0.70;;;;;;;;;;5053464;28;20421;-50
2021/08/02 08:58:00;;;;;;;1.63;0.70;;;;;;;;;;5052263;28;20021;-54
2021/08/02 09:00:26;;;;;;;2.63;0.73;;;;;;;;;;5058371;28;20025;-52
2021/08/02 09:02:53;;;;;;;3.65;0.65;;;;;;;;;;5051864;28;20139;-50
2021/08/02 09:05:19;;;;;;;2.30;1.05;;;;;;;;;;5062458;28;20029;-52
2021/08/02 09:07:46;;;;;;;3.53;0.88;;;;;;;;;;5052199;28;20052;-54
2021/08/02 09:10:21;;;;;;;3.75;0.90;;;;;;;;;;5054980;28;20045;-50
2021/08/02 09:12:48;;;;;;;2.80;0.70;;;;;;;;;;5052509;28;20048;-50
2021/08/02 09:15:14;;;;;;;2.65;0.80;;;;;;;;;;5057021;28;20417;-52
2021/08/02 09:17:40;;;;;;;3.55;0.95;;;;;;;;;;5051991;28;20036;-51
2021/08/02 09:20:17;;;;;;;3.67;0.80;;;;;;;;;;5066896;28;20029;-50
2021/08/02 09:22:43;;;;;;;4.47;1.00;;;;;;;;;;5057812;28;20033;-52
2021/08/02 09:25:13;;;;;;;4.28;1.05;;;;;;;;;;5065620;28;20081;-50
2021/08/02 09:27:40;;;;;;;4.30;0.80;;;;;;;;;;5057616;28;20543;-50
2021/08/02 09:30:13;;;;;;;4.00;0.70;;;;;;;;;;5058776;28;20039;-55
2021/08/02 09:32:46;;;;;;;1.95;0.70;;;;;;;;;;5060870;28;20036;-52
2021/08/02 09:35:12;;;;;;;2.85;1.13;;;;;;;;;;5060791;28;20029;-51
2021/08/02 09:37:38;;;;;;;4.35;0.82;;;;;;;;;;5057952;28;20025;-52
2021/08/02 09:40:04;;;;;;;2.53;1.00;;;;;;;;;;5059068;28;20036;-51
2021/08/02 09:42:30;;;;;;;7.40;1.15;;;;;;;;;;5061003;28;20024;-52
2021/08/02 09:45:03;;;;;;;3.00;0.80;;;;;;;;;;5071655;28;20356;-53
2021/08/02 09:47:30;;;;;;;1.42;0.65;;;;;;;;;;5064060;28;20115;-53
2021/08/02 09:49:56;;;;;;;5.25;0.88;;;;;;;;;;5060435;28;20037;-52
2021/08/02 09:52:22;;;;;;;1.55;0.50;;;;;;;;;;5062705;28;20036;-51
2021/08/02 09:54:48;;;;;;;2.53;0.63;;;;;;;;;;5052258;28;20025;-51
2021/08/02 09:57:14;;;;;;;1.95;0.70;;;;;;;;;;5054966;28;20128;-50
2021/08/02 09:59:42;;;;;;;2.63;0.85;;;;;;;;;;5054723;28;20032;-50
2021/08/02 10:02:08;;;;;;;3.28;0.80;;;;;;;;;;5052122;28;20095;-51
2021/08/02 10:04:34;;;;;;;4.15;1.00;;;;;;;;;;5064000;28;20021;-51
2021/08/02 10:07:00;;;;;;;2.03;0.82;;;;;;;;;;5055242;28;20037;-51
2021/08/02 10:09:31;;;;;;;1.98;0.88;;;;;;;;;;5063127;28;20495;-51
2021/08/02 10:12:00;;;;;;;3.90;0.82;;;;;;;;;;5054418;28;20033;-53
2021/08/02 10:14:30;;;;;;;2.78;0.70;;;;;;;;;;5056526;28;20051;-52
2021/08/02 10:16:56;;;;;;;2.63;0.82;;;;;;;;;;5061673;28;20020;-51
2021/08/02 10:19:34;;;;;;;2.70;1.33;;;;;;;;;;5067229;28;20021;-51
2021/08/02 10:22:00;;;;;;;2.42;0.60;;;;;;;;;;5052316;28;20066;-51
2021/08/02 10:24:26;;;;;;;1.80;0.93;;;;;;;;;;5051794;28;20458;-51
2021/08/02 10:27:02;;;;;;;2.83;0.70;;;;;;;;;;5061701;28;20067;-51
2021/08/02 10:29:38;;;;;;;1.30;0.65;;;;;;;;;;5060180;28;20025;-50
2021/08/02 10:32:04;;;;;;;4.18;1.13;;;;;;;;;;5059414;28;20056;-51
2021/08/02 10:34:30;;;;;;;3.35;0.63;;;;;;;;;;5052311;28;20134;-52
2021/08/02 10:37:03;;;;;;;5.95;0.95;;;;;;;;;;5056785;28;20033;-52
2021/08/02 10:39:30;;;;;;;1.27;0.80;;;;;;;;;;5051037;28;20062;-53
2021/08/02 10:42:06;;;;;;;2.50;0.60;;;;;;;;;;5055051;28;20510;-51
2021/08/02 10:44:32;;;;;;;3.25;1.13;;;;;;;;;;5056823;28;20039;-51
2021/08/02 10:47:07;;;;;;;3.13;0.93;;;;;;;;;;5055526;28;20473;-52
2021/08/02 10:49:33;;;;;;;2.42;0.80;;;;;;;;;;5059694;28;20029;-52
2021/08/02 10:52:00;;;;;;;5.97;1.10;;;;;;;;;;5057124;28;20095;-52
2021/08/02 10:54:36;;;;;;;1.00;0.77;;;;;;;;;;5050910;28;20074;-54
2021/08/02 10:57:10;;;;;;;5.10;0.70;;;;;;;;;;5052677;28;20098;-51
2021/08/02 10:59:38;;;;;;;2.35;0.70;;;;;;;;;;5063854;28;20059;-51
2021/08/02 11:02:08;;;;;;;1.92;0.95;;;;;;;;;;5057017;28;20075;-50
2021/08/02 11:04:35;;;;;;;2.00;0.82;;;;;;;;;;5059934;28;20056;-52
2021/08/02 11:07:01;;;;;;;3.05;0.88;;;;;;;;;;5055270;28;20029;-51
2021/08/02 11:09:31;;;;;;;3.65;0.70;;;;;;;;;;5055466;28;20044;-50
2021/08/02 11:12:13;;;;;;;2.38;0.80;;;;;;;;;;5066357;28;20457;-51
2021/08/02 11:14:45;;;;;;;3.67;0.77;;;;;;;;;;5070617;28;20024;-53
2021/08/02 11:17:15;;;;;;;4.97;0.77;;;;;;;;;;5059348;28;20055;-50
2021/08/02 11:19:41;;;;;;;2.53;0.93;;;;;;;;;;5055935;28;20090;-51
2021/08/02 11:22:07;;;;;;;2.63;0.85;;;;;;;;;;5059004;28;20090;-51
2021/08/02 11:24:34;;;;;;;2.28;0.68;;;;;;;;;;5059373;28;20013;-50
2021/08/02 11:27:01;;;;;;;2.38;0.65;;;;;;;;;;5056304;28;20151;-51
2021/08/02 11:29:28;;;;;;;2.45;1.02;;;;;;;;;;5059383;28;20025;-51
2021/08/02 11:31:54;;;;;;;6.93;1.10;;;;;;;;;;5061864;28;20078;-51
2021/08/02 11:34:21;;;;;;;2.30;0.80;;;;;;;;;;5053717;28;20021;-51
2021/08/02 11:36:56;;;;;;;3.28;0.85;;;;;;;;;;5054113;28;20029;-51
2021/08/02 11:39:22;;;;;;;1.48;0.95;;;;;;;;;;5071244;28;20391;-53
2021/08/02 11:41:58;;;;;;;1.40;0.70;;;;;;;;;;5056224;28;20033;-52
2021/08/02 11:44:24;;;;;;;3.67;1.20;;;;;;;;;;5058853;28;20082;-50
2021/08/02 11:46:50;;;;;;;2.97;0.60;;;;;;;;;;5058447;28;20112;-50
2021/08/02 11:49:16;;;;;;;2.15;0.65;;;;;;;;;;5064541;28;20404;-53
2021/08/02 11:51:44;;;;;;;3.45;1.08;;;;;;;;;;5061618;28;20028;-51
2021/08/02 11:54:17;;;;;;;2.00;0.80;;;;;;;;;;5056600;28;20047;-52
2021/08/02 11:56:43;;;;;;;2.55;0.80;;;;;;;;;;5053277;28;20100;-52
2021/08/02 11:59:18;;;;;;;2.67;1.08;;;;;;;;;;5058112;28;20032;-50
2021/08/02 12:01:45;;;;;;;1.98;0.77;;;;;;;;;;5065997;28;20040;-52
2021/08/02 12:04:11;;;;;;;3.58;0.82;;;;;;;;;;5063411;28;20028;-53
2021/08/02 12:06:46;;;;;;;3.53;0.73;;;;;;;;;;5056590;28;20117;-52
2021/08/02 12:09:12;;;;;;;3.20;0.82;;;;;;;;;;5065374;28;20021;-52
2021/08/02 12:11:42;;;;;;;4.00;0.85;;;;;;;;;;5067080;28;20090;-54
2021/08/02 12:14:08;;;;;;;4.22;0.80;;;;;;;;;;5063954;28;20540;-53
2021/08/02 12:16:34;;;;;;;1.60;0.70;;;;;;;;;;5062951;28;20017;-52
2021/08/02 12:19:04;;;;;;;2.15;0.70;;;;;;;;;;5052667;28;20032;-54
2021/08/02 12:21:32;;;;;;;2.83;0.85;;;;;;;;;;5052882;28;20029;-55
2021/08/02 12:24:05;;;;;;;1.73;0.93;;;;;;;;;;5080724;28;20025;-51
2021/08/02 12:26:31;;;;;;;4.70;0.80;;;;;;;;;;5055243;28;20028;-52
2021/08/02 12:28:58;;;;;;;3.42;0.70;;;;;;;;;;5057975;28;20083;-52
2021/08/02 12:31:24;;;;;;;2.08;1.10;;;;;;;;;;5062894;28;20687;-50
2021/08/02 12:33:51;;;;;;;6.50;1.10;;;;;;;;;;5053275;28;20542;-52
2021/08/02 12:36:18;;;;;;;3.92;1.15;;;;;;;;;;5056006;28;20035;-51
2021/08/02 12:38:45;;;;;;;4.85;1.50;;;;;;;;;;5057288;28;20029;-52
2021/08/02 12:41:12;;;;;;;2.90;0.80;;;;;;;;;;5052673;28;20037;-53
2021/08/02 12:43:38;;;;;;;5.78;0.90;;;;;;;;;;5059778;28;20029;-49
2021/08/02 12:46:04;;;;;;;1.73;0.80;;;;;;;;;;5062052;28;20028;-54
2021/08/02 12:48:30;;;;;;;1.92;0.98;;;;;;;;;;5053534;28;20048;-51
2021/08/02 12:50:56;;;;;;;2.40;0.70;;;;;;;;;;5055238;28;20465;-51
2021/08/02 12:53:22;;;;;;;18.02;5.28;;;;;;;;;;5055953;28;20059;-52
2021/08/02 12:55:48;;;;;;;23.17;7.40;;;;;;;;;;5058894;28;20526;-52
2021/08/02 12:58:15;;;;;;;2.10;0.95;;;;;;;;;;5057709;28;20029;-51
2021/08/02 13:00:43;;;;;;;31.73;9.93;;;;;;;;;;5066445;28;20025;-50
2021/08/02 13:03:09;;;;;;;3.40;1.40;;;;;;;;;;5070678;28;20537;-51
2021/08/02 13:05:35;;;;;;;3.88;1.13;;;;;;;;;;5057810;28;20039;-51
2021/08/02 13:08:02;;;;;;;47.95;15.60;;;;;;;;;;5058998;28;20032;-53
2021/08/02 13:10:28;;;;;;;5.97;2.33;;;;;;;;;;5057939;28;20052;-51
2021/08/02 13:12:54;;;;;;;2.75;0.63;;;;;;;;;;5059204;28;20037;-53
2021/08/02 13:15:20;;;;;;;1.75;0.77;;;;;;;;;;5058511;28;20028;-51
2021/08/02 13:17:46;;;;;;;1.35;0.60;;;;;;;;;;5063916;28;20017;-51
2021/08/02 13:20:13;;;;;;;5.47;1.08;;;;;;;;;;5066328;28;20020;-51
2021/08/02 13:22:45;;;;;;;11.38;3.20;;;;;;;;;;5059393;28;20024;-51
2021/08/02 13:27:56;;;;;;;6.00;1.05;;;;;;;;;;5051832;28;20032;-53
2021/08/02 13:30:22;;;;;;;7.68;3.10;;;;;;;;;;5063327;28;20024;-51
2021/08/02 13:32:49;;;;;;;3.42;0.98;;;;;;;;;;5054449;28;20576;-51
2021/08/02 13:35:15;;;;;;;6.40;2.05;;;;;;;;;;5052095;28;20027;-50
2021/08/02 13:37:41;;;;;;;1.60;0.95;;;;;;;;;;5065366;28;20111;-51
2021/08/02 13:40:07;;;;;;;1.80;0.70;;;;;;;;;;5052244;28;20025;-53
2021/08/02 13:42:34;;;;;;;6.60;0.80;;;;;;;;;;5052000;28;20025;-52
2021/08/02 13:45:00;;;;;;;1.30;0.60;;;;;;;;;;5062219;28;20107;-50
2021/08/02 13:47:28;;;;;;;7.15;0.95;;;;;;;;;;5058544;28;20059;-50
2021/08/02 13:49:54;;;;;;;2.58;0.70;;;;;;;;;;5063127;28;20060;-53
2021/08/02 13:52:20;;;;;;;13.30;1.80;;;;;;;;;;5068133;28;20025;-52
2021/08/02 13:54:46;;;;;;;2.13;0.55;;;;;;;;;;5059925;28;20027;-52
2021/08/02 13:57:12;;;;;;;1.20;0.68;;;;;;;;;;5065894;28;20445;-54
2021/08/02 13:59:39;;;;;;;2.30;0.80;;;;;;;;;;5064839;28;20035;-53
2021/08/02 14:02:05;;;;;;;3.63;0.63;;;;;;;;;;5071681;28;20028;-52
2021/08/02 14:04:32;;;;;;;6.28;1.35;;;;;;;;;;5070635;28;20607;-49
2021/08/02 14:06:58;;;;;;;0.88;0.50;;;;;;;;;;5060201;28;20024;-50
2021/08/02 14:09:24;;;;;;;2.53;0.65;;;;;;;;;;5075331;28;20098;-51
2021/08/02 14:11:51;;;;;;;3.47;1.00;;;;;;;;;;5064646;28;21893;-54
2021/08/02 14:14:17;;;;;;;2.92;1.27;;;;;;;;;;5066908;28;20029;-49
2021/08/02 14:16:51;;;;;;;2.10;0.60;;;;;;;;;;5073638;28;20460;-54
2021/08/02 14:19:20;;;;;;;6.60;1.00;;;;;;;;;;5074368;28;20099;-50
2021/08/02 14:21:46;;;;;;;1.25;0.73;;;;;;;;;;5071493;28;20033;-53
2021/08/02 14:24:13;;;;;;;2.30;0.52;;;;;;;;;;5063503;28;20055;-51
2021/08/02 14:26:39;;;;;;;1.73;0.50;;;;;;;;;;5058880;28;20036;-50
2021/08/02 14:29:06;;;;;;;1.42;0.57;;;;;;;;;;5059364;28;20048;-49
2021/08/02 14:31:33;;;;;;;1.85;0.63;;;;;;;;;;5056460;28;20029;-51
2021/08/02 14:33:59;;;;;;;5.47;0.60;;;;;;;;;;5064498;28;20089;-49
2021/08/02 14:36:26;;;;;;;3.50;0.57;;;;;;;;;;5069591;28;20408;-52
2021/08/02 14:38:53;;;;;;;2.90;0.70;;;;;;;;;;5063904;28;20533;-51
2021/08/02 14:41:25;;;;;;;2.53;0.77;;;;;;;;;;5071267;28;20379;-49
2021/08/02 14:43:51;;;;;;;36.83;2.90;;;;;;;;;;5068372;28;20040;-49
2021/08/02 14:46:19;;;;;;;2.53;0.70;;;;;;;;;;5068453;28;20036;-51
2021/08/02 14:48:51;;;;;;;2.80;0.82;;;;;;;;;;5057184;28;20426;-48